Time;durP1;ratioP1;P1;durP2;ratioP2;P2;SDS_P1;SDS_P2;PMS_P1;PMS_P2;Temp;Humidity;BMP_temperature;BMP_pressure;BME280_temperature;BME280_humidity;BME280_pressure;Samples;Min_cycle;Max_cycle;Signal;HPM_P1;HPM_P2
2023/01/24 00:00:32;;;;;;;;;39.50;29.00;;;;;6.48;53.58;102923.03;5085482;27;45491;-72
2023/01/24 00:02:57;;;;;;;;;33.50;27.75;;;;;6.53;53.44;102918.09;5070542;28;45379;-63
2023/01/24 00:05:22;;;;;;;;;32.75;28.25;;;;;6.52;54.25;102918.91;5083607;27;45774;-73
2023/01/24 00:07:48;;;;;;;;;39.50;30.75;;;;;6.35;53.64;102880.41;5084404;27;46226;-64
2023/01/24 00:10:13;;;;;;;;;32.25;29.75;;;;;6.52;53.87;102919.84;5076534;27;46680;-75
2023/01/24 00:12:39;;;;;;;;;34.00;24.50;;;;;6.54;53.98;102918.22;5075397;27;45585;-73
2023/01/24 00:15:05;;;;;;;;;27.50;27.25;;;;;6.52;53.96;102924.22;5097659;27;45533;-76
2023/01/24 00:17:30;;;;;;;;;33.75;26.75;;;;;6.53;54.18;102919.00;5094445;27;46150;-71
2023/01/24 00:19:55;;;;;;;;;33.25;26.25;;;;;6.53;53.94;102916.34;5095371;27;45610;-73
2023/01/24 00:22:21;;;;;;;;;39.50;31.75;;;;;6.56;53.98;102911.28;5098228;27;45511;-71
2023/01/24 00:24:48;;;;;;;;;29.75;28.50;;;;;6.49;53.98;102906.31;5099721;27;48891;-67
2023/01/24 00:27:16;;;;;;;;;37.50;30.50;;;;;6.57;53.54;102913.16;5097880;27;46678;-66
2023/01/24 00:29:42;;;;;;;;;40.50;31.25;;;;;6.55;54.17;102906.81;5104264;27;45488;-66
2023/01/24 00:32:08;;;;;;;;;30.25;25.75;;;;;6.53;53.87;102897.75;5088296;27;45440;-65
2023/01/24 00:34:33;;;;;;;;;36.00;30.00;;;;;6.60;53.99;102907.13;5078604;27;45298;-65
2023/01/24 00:36:58;;;;;;;;;26.25;26.00;;;;;6.58;53.92;102901.72;5101849;27;58081;-67
2023/01/24 00:39:23;;;;;;;;;33.25;28.00;;;;;6.04;53.93;102799.34;5096927;27;45531;-66
2023/01/24 00:41:49;;;;;;;;;33.25;27.75;;;;;6.59;54.29;102903.56;5102525;27;57460;-65
2023/01/24 00:44:14;;;;;;;;;37.00;31.75;;;;;6.54;53.95;102899.63;5098030;27;45550;-63
2023/01/24 00:46:41;;;;;;;;;28.00;23.50;;;;;6.56;54.28;102899.75;5083462;27;46212;-63
2023/01/24 00:49:06;;;;;;;;;14.00;11.75;;;;;6.55;54.16;102906.81;5097504;27;45407;-64
2023/01/24 00:51:32;;;;;;;;;33.25;28.25;;;;;6.50;53.94;102900.22;5097703;27;45406;-65
2023/01/24 00:53:57;;;;;;;;;34.50;32.00;;;;;6.48;53.89;102898.22;5099727;27;45563;-66
2023/01/24 00:56:22;;;;;;;;;27.25;23.50;;;;;6.42;54.44;102890.72;5100469;27;45586;-72
2023/01/24 00:58:48;;;;;;;;;38.75;30.00;;;;;6.49;54.19;102911.63;5102126;27;45712;-70
2023/01/24 01:01:13;;;;;;;;;39.25;29.50;;;;;6.49;54.52;102910.72;5106668;27;45869;-74
2023/01/24 01:03:38;;;;;;;;;34.75;27.00;;;;;6.51;54.23;102922.38;5084363;27;45531;-67
2023/01/24 01:06:06;;;;;;;;;32.00;27.00;;;;;6.53;54.36;102910.13;5104257;27;45749;-70
2023/01/24 01:08:32;;;;;;;;;36.50;32.50;;;;;6.38;54.56;102878.91;5103770;27;45588;-67
2023/01/24 01:10:58;;;;;;;;;35.50;31.25;;;;;6.57;54.48;102906.91;5104993;27;45501;-69
2023/01/24 01:13:25;;;;;;;;;35.50;33.00;;;;;6.54;54.46;102907.59;5101408;27;45424;-64
2023/01/24 01:15:50;;;;;;;;;32.50;30.75;;;;;6.48;54.21;102912.41;5099737;27;46109;-66
2023/01/24 01:18:16;;;;;;;;;45.75;29.50;;;;;6.41;54.54;102903.06;5096907;27;46387;-64
2023/01/24 01:20:41;;;;;;;;;39.00;32.75;;;;;6.54;54.55;102917.31;5100021;27;45347;-65
2023/01/24 01:23:07;;;;;;;;;39.75;30.25;;;;;6.51;54.35;102915.31;5102144;27;45494;-65
2023/01/24 01:25:32;;;;;;;;;37.00;28.50;;;;;6.51;54.38;102923.28;5083123;27;47365;-68
2023/01/24 01:27:58;;;;;;;;;40.25;26.00;;;;;6.45;54.46;102925.44;5105901;27;45432;-70
2023/01/24 01:30:23;;;;;;;;;38.00;29.25;;;;;6.47;54.58;102939.81;5083777;27;45466;-75
2023/01/24 01:32:49;;;;;;;;;33.75;29.50;;;;;6.44;55.01;102932.50;5098625;27;45286;-70
2023/01/24 01:35:14;;;;;;;;;35.25;28.75;;;;;6.43;54.56;102928.03;5074538;27;46177;-67
2023/01/24 01:37:39;;;;;;;;;36.50;28.50;;;;;6.41;54.70;102918.06;5104610;27;45342;-70
2023/01/24 01:40:06;;;;;;;;;38.00;34.25;;;;;6.27;54.71;102885.16;5102526;27;51312;-72
2023/01/24 01:42:46;;;;;;;;;38.25;33.50;;;;;6.51;54.69;102927.69;5092048;27;45248;-69
2023/01/24 01:45:30;;;;;;;;;42.50;35.25;;;;;6.52;54.92;102929.53;5090135;27;46520;-72
2023/01/24 01:47:56;;;;;;;;;35.00;29.75;;;;;6.50;54.82;102926.78;5092976;27;45496;-69
2023/01/24 01:50:29;;;;;;;;;29.75;28.50;;;;;6.54;55.05;102930.59;5101021;27;45481;-67
2023/01/24 01:52:56;;;;;;;;;35.25;28.00;;;;;6.48;54.99;102923.03;5095529;27;45418;-76
2023/01/24 01:55:26;;;;;;;;;37.25;32.50;;;;;6.52;54.83;102926.88;5097912;27;45487;-67
2023/01/24 01:57:53;;;;;;;;;26.00;24.25;;;;;6.50;55.02;102936.44;5062383;27;45494;-74
2023/01/24 02:00:21;;;;;;;;;34.50;19.50;;;;;6.42;54.61;102915.53;5088835;27;45514;-73
2023/01/24 02:02:53;;;;;;;;;38.25;26.75;;;;;6.43;54.52;102913.78;5106259;27;45283;-65
2023/01/24 02:05:23;;;;;;;;;46.00;28.00;;;;;6.44;54.71;102924.53;5106445;27;45337;-66
2023/01/24 02:07:58;;;;;;;;;29.75;24.25;;;;;6.48;55.01;102933.66;5105056;27;45479;-72
2023/01/24 02:11:37;;;;;;;;;41.25;29.25;;;;;6.53;54.05;102936.69;5098925;27;45453;-65
2023/01/24 02:13:12;;;;;;;;;38.50;29.00;;;;;6.11;54.61;102872.38;5086246;27;45473;-71
2023/01/24 02:18:21;;;;;;;;;46.50;32.00;;;;;6.48;54.45;102946.03;5077418;27;45489;-75
2023/01/24 02:20:47;;;;;;;;;34.75;27.50;;;;;6.40;54.24;102937.44;5083643;27;45272;-67
2023/01/24 02:23:36;;;;;;;;;37.50;23.75;;;;;6.43;54.49;102950.97;5089259;27;45315;-71
2023/01/24 02:26:08;;;;;;;;;32.50;30.50;;;;;6.43;54.32;102943.00;5081587;27;46114;-75
2023/01/24 02:28:34;;;;;;;;;33.50;27.00;;;;;6.42;53.92;102946.47;5069981;28;45530;-70
2023/01/24 02:31:01;;;;;;;;;37.25;32.50;;;;;6.37;53.82;102951.44;5083295;27;45479;-67
2023/01/24 02:33:27;;;;;;;;;38.25;26.75;;;;;6.34;54.15;102945.88;5087667;27;45521;-66
2023/01/24 02:36:14;;;;;;;;;37.75;27.50;;;;;6.09;54.38;102906.78;5075915;27;45654;-72
2023/01/24 02:38:43;;;;;;;;;31.00;28.50;;;;;6.30;54.28;102933.13;5085362;27;45481;-65
2023/01/24 02:41:09;;;;;;;;;37.75;28.25;;;;;6.01;54.26;102897.28;5080013;27;45362;-63
2023/01/24 02:43:40;;;;;;;;;35.50;29.50;;;;;6.21;54.21;102933.34;5074198;27;45652;-74
2023/01/24 02:46:05;;;;;;;;;29.25;26.00;;;;;6.20;53.38;102930.56;5075903;27;47102;-73
2023/01/24 02:48:30;;;;;;;;;35.00;28.25;;;;;6.09;54.25;102921.78;5062447;27;45956;-72
2023/01/24 02:53:40;;;;;;;;;47.25;32.00;;;;;5.89;54.31;102897.19;5082662;27;45252;-71
2023/01/24 02:58:53;;;;;;;;;41.50;30.00;;;;;6.08;54.56;102926.13;5081408;27;45525;-66
2023/01/24 03:01:20;;;;;;;;;42.75;33.25;;;;;6.15;54.65;102942.56;5056317;28;45562;-71
2023/01/24 03:03:47;;;;;;;;;40.00;32.00;;;;;6.14;54.46;102946.00;5079896;27;45416;-67
2023/01/24 03:06:14;;;;;;;;;31.50;27.50;;;;;6.05;54.53;102936.50;5084235;27;46297;-68
2023/01/24 03:08:40;;;;;;;;;29.75;29.75;;;;;5.96;54.41;102922.53;5087977;27;45997;-76
2023/01/24 03:11:07;;;;;;;;;26.00;26.00;;;;;5.98;54.71;102933.25;5077719;28;45338;-68
2023/01/24 03:35:28;;;;;;;;;31.75;26.25;;;;;5.77;54.77;102885.56;5075803;28;45362;-69
2023/01/24 03:40:38;;;;;;;;;33.25;29.00;;;;;5.93;54.57;102911.63;5073264;28;45547;-66
2023/01/24 03:43:04;;;;;;;;;41.50;36.25;;;;;5.99;54.29;102914.81;5075326;28;45425;-70
2023/01/24 03:45:32;;;;;;;;;38.50;33.50;;;;;6.09;54.76;102943.00;5056741;28;45523;-64
2023/01/24 03:48:03;;;;;;;;;38.25;31.00;;;;;6.08;54.65;102944.72;5075389;28;45350;-65
2023/01/24 03:53:21;;;;;;;;;43.00;27.50;;;;;6.09;54.65;102928.00;5077474;28;45662;-69
2023/01/24 03:55:52;;;;;;;;;39.50;34.75;;;;;5.96;54.34;102905.66;5058545;28;45659;-67
2023/01/24 03:58:17;;;;;;;;;52.00;28.25;;;;;6.05;54.53;102925.88;5078014;28;47268;-66
2023/01/24 04:00:42;;;;;;;;;36.25;30.50;;;;;6.14;55.23;102930.06;5077805;28;45389;-63
2023/01/24 04:03:08;;;;;;;;;28.00;28.00;;;;;5.99;54.36;102893.59;5079893;28;45381;-66
2023/01/24 04:05:35;;;;;;;;;44.25;36.25;;;;;6.02;54.66;102879.63;5079948;28;45293;-65
2023/01/24 04:08:00;;;;;;;;;47.50;36.25;;;;;6.24;54.50;102935.34;5076124;28;46158;-65
2023/01/24 04:10:25;;;;;;;;;38.00;27.50;;;;;6.20;54.33;102914.66;5075465;28;45414;-67
2023/01/24 04:12:51;;;;;;;;;43.00;32.00;;;;;6.24;54.53;102930.03;5076523;27;45476;-64
2023/01/24 04:15:29;;;;;;;;;43.50;34.25;;;;;6.22;54.14;102945.84;5087598;27;45435;-66
2023/01/24 04:17:56;;;;;;;;;32.25;27.00;;;;;6.07;54.57;102902.13;5063490;27;47363;-65
2023/01/24 04:20:22;;;;;;;;;31.00;29.50;;;;;6.05;54.47;102909.97;5077264;27;45429;-65
2023/01/24 04:22:48;;;;;;;;;33.50;26.25;;;;;6.07;54.29;102918.03;5077686;27;45386;-72
2023/01/24 04:25:13;;;;;;;;;29.50;21.75;;;;;6.12;54.92;102923.72;5076579;27;45293;-72
2023/01/24 04:27:38;;;;;;;;;40.50;31.50;;;;;6.08;54.64;102912.88;5075446;27;46307;-64
2023/01/24 04:30:10;;;;;;;;;35.75;30.50;;;;;6.14;54.64;102922.13;5080080;27;45394;-64
2023/01/24 04:32:36;;;;;;;;;33.50;28.00;;;;;6.08;54.51;102910.22;5075278;27;45328;-64
2023/01/24 04:35:03;;;;;;;;;39.75;32.75;;;;;6.06;54.65;102911.81;5077168;27;45884;-66
2023/01/24 04:37:29;;;;;;;;;50.50;30.50;;;;;6.08;54.58;102919.91;5083587;27;46189;-64
2023/01/24 04:39:54;;;;;;;;;37.25;35.00;;;;;6.04;54.92;102933.75;5078897;27;45317;-65
2023/01/24 04:42:20;;;;;;;;;43.00;34.00;;;;;5.98;55.18;102936.81;5073978;27;45635;-64
2023/01/24 04:44:46;;;;;;;;;47.50;36.50;;;;;5.85;55.28;102918.94;5079518;27;45549;-66
2023/01/24 04:47:11;;;;;;;;;43.00;34.50;;;;;5.93;55.47;102946.09;5075002;27;45498;-64
2023/01/24 04:49:37;;;;;;;;;41.75;37.00;;;;;5.95;55.44;102947.16;5075039;27;45326;-63
2023/01/24 04:52:03;;;;;;;;;33.00;27.75;;;;;5.99;54.92;102944.00;5067528;27;45394;-73
2023/01/24 04:54:28;;;;;;;;;41.75;35.75;;;;;5.93;54.82;102935.50;5077160;27;45564;-71
2023/01/24 04:56:53;;;;;;;;;28.50;24.75;;;;;5.95;55.72;102946.22;5080491;27;46306;-69
2023/01/24 04:59:20;;;;;;;;;45.50;36.00;;;;;5.89;55.72;102947.59;5077718;27;45444;-71
2023/01/24 05:01:45;;;;;;;;;45.00;36.75;;;;;5.93;55.46;102943.47;5052852;27;45422;-64
2023/01/24 05:04:11;;;;;;;;;32.50;30.25;;;;;5.95;55.01;102955.09;5078655;27;45418;-68
2023/01/24 05:06:36;;;;;;;;;40.75;35.25;;;;;5.90;55.79;102953.81;5080870;27;46142;-69
2023/01/24 05:09:03;;;;;;;;;31.50;29.50;;;;;5.68;55.42;102928.22;5092431;27;45445;-76
2023/01/24 05:11:29;;;;;;;;;45.75;37.00;;;;;5.84;56.10;102956.91;5083097;27;45407;-68
2023/01/24 05:13:54;;;;;;;;;39.25;34.25;;;;;5.87;55.74;102967.78;5090482;27;45314;-67
2023/01/24 05:16:19;;;;;;;;;40.50;30.25;;;;;5.76;55.93;102958.03;5091344;27;45866;-68
2023/01/24 05:18:45;;;;;;;;;35.75;30.75;;;;;5.68;55.84;102949.44;5079463;27;45484;-64
2023/01/24 05:21:14;;;;;;;;;43.75;35.25;;;;;5.69;56.65;102963.59;5087225;27;45346;-65
2023/01/24 05:23:41;;;;;;;;;41.25;35.25;;;;;5.42;56.24;102912.81;5079311;27;45437;-66
2023/01/24 05:26:07;;;;;;;;;41.25;34.50;;;;;5.69;56.41;102963.59;5075640;27;45513;-64
2023/01/24 05:28:32;;;;;;;;;44.00;32.75;;;;;5.72;56.43;102966.50;5085189;27;45602;-64
2023/01/24 05:31:03;;;;;;;;;38.25;34.25;;;;;5.75;56.42;102963.19;5081191;27;45327;-67
2023/01/24 05:33:29;;;;;;;;;40.00;30.00;;;;;5.77;56.30;102965.16;5085402;27;45619;-64
2023/01/24 05:36:27;;;;;;;;;42.50;35.00;;;;;5.81;56.43;102969.94;5079038;27;45462;-64
2023/01/24 05:38:53;;;;;;;;;45.25;37.25;;;;;5.88;56.60;102964.31;5045509;27;45413;-66
2023/01/24 05:41:20;;;;;;;;;48.00;35.50;;;;;5.54;56.67;102891.69;5076563;27;45442;-66
2023/01/24 05:43:46;;;;;;;;;47.50;35.75;;;;;5.92;55.89;102954.84;5077120;27;45495;-64
2023/01/24 05:46:18;;;;;;;;;40.00;30.25;;;;;5.94;55.78;102962.94;5078742;27;45492;-65
2023/01/24 05:48:44;;;;;;;;;38.00;36.00;;;;;5.88;55.76;102963.38;5081331;27;45623;-66
2023/01/24 05:51:11;;;;;;;;;51.25;35.75;;;;;5.89;55.89;102970.56;5076026;27;45657;-65
2023/01/24 05:53:38;;;;;;;;;41.25;35.00;;;;;5.76;56.26;102976.59;5084035;27;45672;-66
2023/01/24 05:56:07;;;;;;;;;42.25;32.50;;;;;5.78;56.56;102961.72;5073138;27;45412;-70
2023/01/24 05:58:35;;;;;;;;;40.25;29.50;;;;;5.80;56.20;102967.16;5076878;27;45412;-64
2023/01/24 06:01:01;;;;;;;;;49.00;35.25;;;;;5.80;56.11;102970.72;5082538;27;45492;-64
2023/01/24 06:03:26;;;;;;;;;45.50;32.25;;;;;5.83;56.29;102975.34;5084270;27;45574;-64
2023/01/24 06:05:54;;;;;;;;;32.00;32.00;;;;;5.75;56.53;102969.41;5077477;27;45552;-65
2023/01/24 06:08:20;;;;;;;;;54.75;36.50;;;;;5.74;56.37;102959.59;5076011;27;45589;-66
2023/01/24 06:10:46;;;;;;;;;37.50;30.75;;;;;5.75;56.13;102955.25;5083500;27;45431;-65
2023/01/24 06:13:12;;;;;;;;;46.25;36.00;;;;;5.46;56.42;102909.63;5087969;27;45446;-71
2023/01/24 06:15:38;;;;;;;;;43.00;34.00;;;;;5.80;56.54;102967.16;5098730;27;45551;-66
2023/01/24 06:18:05;;;;;;;;;46.75;29.75;;;;;5.83;56.60;102978.00;5082651;27;45315;-65
2023/01/24 06:20:33;;;;;;;;;61.25;44.00;;;;;5.83;56.65;102991.28;5087570;27;45355;-63
2023/01/24 06:23:03;;;;;;;;;31.50;28.50;;;;;5.82;56.94;102989.41;5076637;27;45310;-68
2023/01/24 06:25:29;;;;;;;;;43.50;35.75;;;;;5.78;56.59;102987.31;5073552;27;47197;-68
2023/01/24 06:27:55;;;;;;;;;43.50;33.00;;;;;5.50;56.34;102950.56;5076149;27;45326;-65
2023/01/24 06:30:21;;;;;;;;;44.25;36.00;;;;;5.64;57.15;102984.47;5075957;27;45585;-65
2023/01/24 06:33:17;;;;;;;;;48.25;33.75;;;;;5.71;56.92;102991.19;5077276;27;45702;-69
2023/01/24 06:36:25;;;;;;;;;41.50;33.75;;;;;5.69;56.88;102988.41;5076459;27;46588;-71
2023/01/24 06:38:50;;;;;;;;;42.00;37.50;;;;;5.63;57.00;102977.28;4957520;28;45636;-71
2023/01/24 06:41:17;;;;;;;;;52.50;36.25;;;;;5.77;56.83;102996.06;5052828;27;45423;-67
2023/01/24 06:43:45;;;;;;;;;44.00;37.25;;;;;5.83;56.51;102981.56;5080705;27;45624;-65
2023/01/24 06:46:12;;;;;;;;;38.25;34.00;;;;;5.89;56.46;102990.03;5089385;27;46338;-66
2023/01/24 06:48:38;;;;;;;;;71.25;55.00;;;;;5.87;56.87;102985.41;5062629;27;45493;-68
2023/01/24 06:51:04;;;;;;;;;41.75;36.00;;;;;5.97;56.70;102995.06;5073845;27;45338;-64
2023/01/24 06:53:32;;;;;;;;;47.25;38.00;;;;;6.00;56.40;103000.63;5075661;27;45469;-72
2023/01/24 06:55:57;;;;;;;;;46.50;35.00;;;;;6.03;56.09;103003.53;5070343;27;46240;-68
2023/01/24 06:58:23;;;;;;;;;54.25;38.25;;;;;5.84;55.98;102987.78;5074054;27;45514;-67
2023/01/24 07:00:48;;;;;;;;;48.50;32.75;;;;;5.72;56.19;102967.47;5077742;27;45471;-68
2023/01/24 07:03:14;;;;;;;;;52.50;38.00;;;;;5.95;56.56;103001.94;5084549;27;45493;-65
2023/01/24 07:05:39;;;;;;;;;58.50;39.75;;;;;5.85;56.65;102992.31;5092032;27;45369;-72
2023/01/24 07:08:06;;;;;;;;;40.75;32.00;;;;;5.97;56.80;103008.34;5105454;27;45080;-70
2023/01/24 07:10:32;;;;;;;;;48.25;38.25;;;;;5.80;56.78;102975.09;5058814;28;45308;-67
2023/01/24 07:12:57;;;;;;;;;47.50;37.00;;;;;6.02;56.93;103020.25;5093264;27;46285;-65
2023/01/24 07:15:22;;;;;;;;;83.00;59.25;;;;;5.99;56.45;102998.75;5096822;27;45609;-67
2023/01/24 07:17:49;;;;;;;;;49.75;37.25;;;;;6.02;56.38;103012.28;5107920;27;45348;-64
2023/01/24 07:20:15;;;;;;;;;54.00;41.50;;;;;5.93;56.03;102996.53;5106512;27;48067;-67
2023/01/24 07:22:42;;;;;;;;;51.75;39.25;;;;;5.95;56.12;103021.44;5106903;27;45117;-68
2023/01/24 07:25:20;;;;;;;;;54.75;42.00;;;;;5.93;56.73;103025.69;5104839;27;45438;-71
2023/01/24 07:27:45;;;;;;;;;55.25;39.00;;;;;5.96;57.12;103019.75;5094897;27;45578;-69
2023/01/24 07:30:12;;;;;;;;;50.00;38.25;;;;;5.91;57.38;102995.47;5094853;27;45308;-68
2023/01/24 07:32:38;;;;;;;;;48.00;38.75;;;;;6.06;57.08;103020.63;5077063;27;45603;-66
2023/01/24 07:35:04;;;;;;;;;57.75;46.25;;;;;5.76;56.97;102965.03;5096394;27;46081;-67
2023/01/24 07:37:29;;;;;;;;;56.75;40.00;;;;;6.02;56.80;103006.97;5102173;27;45542;-72
2023/01/24 07:39:55;;;;;;;;;53.75;37.50;;;;;6.11;57.36;103033.38;5081185;27;45406;-74
2023/01/24 07:42:20;;;;;;;;;47.00;30.75;;;;;6.08;56.33;103032.28;5100230;27;45406;-70
2023/01/24 07:44:45;;;;;;;;;54.50;42.75;;;;;5.97;56.35;103017.22;5099459;27;46119;-73
2023/01/24 07:47:11;;;;;;;;;48.75;38.25;;;;;5.82;56.61;103008.91;5069418;27;45502;-77
2023/01/24 07:49:36;;;;;;;;;50.50;38.00;;;;;5.86;56.82;103028.66;5116253;27;45339;-71
2023/01/24 07:52:04;;;;;;;;;53.25;43.00;;;;;5.86;56.99;103039.28;5110885;27;45452;-72
2023/01/24 07:54:30;;;;;;;;;64.00;47.25;;;;;5.47;57.76;102980.41;5083451;27;47692;-74
2023/01/24 07:56:55;;;;;;;;;51.50;36.50;;;;;4.94;57.07;102881.47;5097448;27;45484;-69
2023/01/24 07:59:20;;;;;;;;;57.00;42.00;;;;;5.87;57.29;103050.03;5096319;27;45574;-68
2023/01/24 08:01:46;;;;;;;;;54.75;45.25;;;;;5.92;57.29;103055.69;5090480;27;45656;-72
2023/01/24 08:04:11;;;;;;;;;40.25;36.00;;;;;5.95;57.02;103058.59;5096087;27;45306;-67
2023/01/24 08:07:16;;;;;;;;;44.50;37.75;;;;;5.92;57.33;103063.63;5075020;27;45453;-65
2023/01/24 08:09:24;;;;;;;;;50.75;39.50;;;;;5.96;57.09;103065.78;5096036;27;45480;-65
2023/01/24 08:11:49;;;;;;;;;37.75;33.50;;;;;5.70;57.21;103018.50;5097805;27;45429;-66
2023/01/24 08:14:15;;;;;;;;;53.50;38.25;;;;;6.01;57.06;103069.75;5079676;27;45774;-66
2023/01/24 08:16:40;;;;;;;;;51.00;36.75;;;;;6.04;57.00;103062.03;5094415;27;45227;-67
2023/01/24 08:19:06;;;;;;;;;53.25;39.00;;;;;6.08;57.48;103069.44;5095964;27;45588;-69
2023/01/24 08:21:31;;;;;;;;;44.75;38.50;;;;;6.14;56.68;103068.09;5096047;27;45600;-68
2023/01/24 08:23:56;;;;;;;;;55.50;43.00;;;;;6.19;56.83;103064.09;5093888;27;46171;-66
2023/01/24 08:26:22;;;;;;;;;53.25;41.50;;;;;6.17;56.88;103068.34;5094969;27;45688;-67
2023/01/24 08:28:47;;;;;;;;;53.00;41.50;;;;;6.14;57.16;103057.47;5092532;27;45478;-65
2023/01/24 08:31:12;;;;;;;;;60.25;45.50;;;;;6.07;56.73;103041.06;5081598;27;45617;-67
2023/01/24 08:33:38;;;;;;;;;55.25;45.50;;;;;6.22;56.48;103073.25;5099475;27;45561;-66
2023/01/24 08:36:04;;;;;;;;;56.00;44.25;;;;;6.22;56.41;103062.63;5098943;27;45460;-66
2023/01/24 08:38:30;;;;;;;;;73.25;52.50;;;;;6.09;56.56;103059.78;5098533;27;45444;-68
2023/01/24 08:40:55;;;;;;;;;59.00;42.25;;;;;6.19;56.89;103073.00;5065287;27;45355;-64
2023/01/24 08:43:20;;;;;;;;;51.75;39.75;;;;;6.25;56.52;103077.84;5095543;27;46942;-70
2023/01/24 08:45:46;;;;;;;;;52.00;38.50;;;;;6.24;56.83;103086.66;5080397;27;45426;-69
2023/01/24 08:48:11;;;;;;;;;57.25;42.25;;;;;6.21;56.65;103089.03;5094207;27;45299;-66
2023/01/24 08:50:36;;;;;;;;;51.75;41.25;;;;;6.23;56.71;103088.34;5091337;27;46187;-67
2023/01/24 08:53:02;;;;;;;;;60.75;41.50;;;;;6.22;56.55;103098.84;5095914;27;45473;-66
2023/01/24 08:55:27;;;;;;;;;53.75;39.00;;;;;6.17;56.51;103082.56;5094558;27;45280;-66
2023/01/24 08:57:59;;;;;;;;;50.75;39.75;;;;;6.14;57.02;103089.31;5105374;27;45543;-67
2023/01/24 09:00:25;;;;;;;;;44.50;35.75;;;;;6.09;56.89;103087.22;5109244;27;45414;-65
2023/01/24 09:02:50;;;;;;;;;63.00;45.00;;;;;6.15;56.84;103088.53;5115701;27;45327;-66
2023/01/24 09:05:16;;;;;;;;;54.50;40.00;;;;;6.12;56.92;103089.22;5115805;27;45188;-67
2023/01/24 09:07:41;;;;;;;;;51.00;43.00;;;;;6.20;57.00;103106.72;5112243;27;45663;-67
2023/01/24 09:10:08;;;;;;;;;77.25;56.00;;;;;6.25;56.77;103102.69;5112224;27;45275;-66
2023/01/24 09:12:33;;;;;;;;;55.00;38.75;;;;;6.28;56.43;103102.00;5095561;27;47251;-65
2023/01/24 09:14:59;;;;;;;;;52.50;43.00;;;;;6.29;56.64;103103.88;5094114;27;45108;-66
2023/01/24 09:17:25;;;;;;;;;57.50;43.00;;;;;6.30;56.80;103096.81;5114241;27;45255;-68
2023/01/24 09:19:51;;;;;;;;;42.50;38.00;;;;;6.38;56.57;103109.91;5110391;27;46174;-64
2023/01/24 09:22:16;;;;;;;;;45.25;36.75;;;;;6.34;56.57;103094.53;5099443;27;45965;-67
2023/01/24 09:24:41;;;;;;;;;55.00;37.00;;;;;6.46;56.57;103097.25;5093666;27;45548;-67
2023/01/24 09:27:07;;;;;;;;;54.25;38.75;;;;;6.42;56.45;103096.09;5097093;27;45474;-70
2023/01/24 09:29:32;;;;;;;;;52.50;36.50;;;;;6.43;56.57;103100.63;5093165;27;45404;-65
2023/01/24 09:31:58;;;;;;;;;63.25;47.75;;;;;6.45;56.46;103099.00;5094922;27;45624;-64
2023/01/24 09:34:23;;;;;;;;;61.25;44.50;;;;;6.33;56.04;103079.41;5090228;27;45341;-66
2023/01/24 09:36:49;;;;;;;;;66.75;48.00;;;;;6.44;56.16;103118.38;5087619;27;45539;-66
2023/01/24 09:39:15;;;;;;;;;60.25;41.50;;;;;6.42;55.85;103103.16;5072880;27;45572;-65
2023/01/24 09:41:46;;;;;;;;;45.00;36.25;;;;;6.42;55.90;103103.16;5090888;27;46406;-65
2023/01/24 09:44:27;;;;;;;;;62.75;42.25;;;;;6.49;56.06;103115.19;5098897;27;45385;-68
2023/01/24 09:46:54;;;;;;;;;56.75;39.50;;;;;6.36;56.20;103098.25;5099635;27;45523;-64
2023/01/24 09:49:36;;;;;;;;;51.75;37.00;;;;;6.20;56.50;103085.47;5098984;27;45591;-66
2023/01/24 09:52:06;;;;;;;;;50.50;38.00;;;;;6.42;56.69;103119.06;5091046;27;46444;-65
2023/01/24 09:54:38;;;;;;;;;38.25;35.50;;;;;6.46;56.17;103116.75;5087833;27;45485;-67
2023/01/24 09:57:15;;;;;;;;;42.00;37.25;;;;;6.44;55.86;103123.69;5088794;27;45445;-69
2023/01/24 09:59:46;;;;;;;;;51.00;37.75;;;;;6.45;56.40;103120.25;5090068;27;45716;-66
2023/01/24 10:02:18;;;;;;;;;64.25;48.50;;;;;6.49;56.68;103129.38;5087878;27;46347;-70
2023/01/24 10:04:45;;;;;;;;;59.75;44.25;;;;;6.51;56.10;103114.50;5090741;27;45325;-69
2023/01/24 10:07:22;;;;;;;;;50.75;38.75;;;;;6.52;56.28;103132.28;5095249;27;45544;-68
2023/01/24 10:10:02;;;;;;;;;61.25;39.50;;;;;6.44;56.26;103147.59;5078615;27;45603;-66
2023/01/24 10:12:51;;;;;;;;;62.25;41.75;;;;;6.44;56.57;103142.28;5089741;27;45498;-69
2023/01/24 10:16:10;;;;;;;;;45.75;38.25;;;;;6.41;56.44;103127.84;5084399;27;45348;-67
2023/01/24 10:18:47;;;;;;;;;47.50;35.50;;;;;6.44;56.47;103126.34;5044435;27;45720;-67
2023/01/24 10:21:34;;;;;;;;;49.25;41.00;;;;;6.45;56.18;103133.53;5075656;27;45466;-65
2023/01/24 10:24:06;;;;;;;;;56.75;39.00;;;;;6.36;56.47;103106.22;5070969;27;45480;-67
2023/01/24 10:26:38;;;;;;;;;50.50;38.50;;;;;6.56;56.73;103117.53;5079240;27;45319;-68
2023/01/24 10:29:21;;;;;;;;;48.75;39.75;;;;;6.42;56.72;103084.56;5077432;27;45489;-72
2023/01/24 10:32:03;;;;;;;;;55.00;40.00;;;;;6.66;56.38;103121.84;5089360;27;45556;-68
2023/01/24 10:34:41;;;;;;;;;68.25;49.25;;;;;6.69;56.36;103119.44;5078819;27;46212;-67
2023/01/24 10:37:10;;;;;;;;;53.00;38.25;;;;;6.72;56.50;103114.38;5049280;27;45436;-66
2023/01/24 10:39:37;;;;;;;;;65.25;49.25;;;;;6.78;56.18;103122.81;5073293;27;45620;-65
2023/01/24 10:42:21;;;;;;;;;47.00;38.00;;;;;6.73;56.28;103116.22;5071060;27;45292;-69
2023/01/24 10:44:47;;;;;;;;;47.75;38.75;;;;;6.77;56.25;103123.66;5072709;27;45627;-68
2023/01/24 10:47:24;;;;;;;;;52.50;39.00;;;;;6.80;56.17;103114.19;5075765;27;45547;-68
2023/01/24 10:50:17;;;;;;;;;54.50;35.00;;;;;6.87;55.97;103120.00;5059071;27;45625;-68
2023/01/24 10:52:46;;;;;;;;;43.50;36.25;;;;;6.91;55.91;103116.75;5077176;27;45311;-68
2023/01/24 10:55:34;;;;;;;;;50.25;37.00;;;;;6.93;55.85;103110.78;5078453;27;45449;-68
2023/01/24 10:58:03;;;;;;;;;51.00;37.00;;;;;6.86;55.62;103086.25;5076444;27;45413;-73
2023/01/24 11:00:35;;;;;;;;;53.25;36.50;;;;;7.00;55.56;103102.47;5074475;27;45316;-67
2023/01/24 11:03:16;;;;;;;;;53.00;39.75;;;;;6.90;55.43;103077.72;5086248;27;45487;-68
2023/01/24 11:05:50;;;;;;;;;56.25;36.00;;;;;7.00;55.57;103106.88;5075437;27;45512;-67
2023/01/24 11:08:26;;;;;;;;;60.75;47.25;;;;;6.74;56.18;103073.84;5078881;27;45403;-68
2023/01/24 11:11:00;;;;;;;;;45.25;39.25;;;;;6.88;55.53;103090.91;5081183;27;45468;-69
2023/01/24 11:13:30;;;;;;;;;51.50;35.50;;;;;6.85;56.19;103097.66;5078666;27;45594;-68
2023/01/24 11:16:01;;;;;;;;;53.50;38.25;;;;;6.82;55.86;103080.69;5075818;27;45461;-71
2023/01/24 11:18:28;;;;;;;;;43.00;36.00;;;;;6.92;56.00;103094.72;5058463;27;45615;-69
2023/01/24 11:21:15;;;;;;;;;43.25;34.75;;;;;6.91;56.25;103088.44;5063173;27;45415;-68
2023/01/24 11:23:42;;;;;;;;;53.50;37.25;;;;;6.83;55.76;103078.97;5091493;27;45504;-68
2023/01/24 11:26:22;;;;;;;;;51.75;36.75;;;;;6.61;56.20;103044.44;5096159;27;46048;-70
2023/01/24 11:29:06;;;;;;;;;50.50;39.00;;;;;6.73;56.29;103041.84;5089644;27;45355;-69
2023/01/24 11:31:43;;;;;;;;;43.50;35.75;;;;;6.93;56.06;103062.00;5076771;27;45580;-69
2023/01/24 11:34:15;;;;;;;;;41.50;36.00;;;;;7.08;56.14;103072.91;5086458;27;45630;-69
2023/01/24 11:36:50;;;;;;;;;43.25;32.25;;;;;7.13;55.56;103075.13;5083178;27;46974;-68
2023/01/24 11:39:25;;;;;;;;;64.50;47.75;;;;;7.16;55.66;103062.09;5080521;27;45345;-67
2023/01/24 11:42:25;;;;;;;;;46.25;37.75;;;;;7.15;55.21;103059.28;5069840;27;45390;-66
2023/01/24 11:45:28;;;;;;;;;39.75;28.25;;;;;7.28;55.51;103070.06;5073169;27;45523;-65
2023/01/24 11:48:05;;;;;;;;;47.75;38.00;;;;;7.24;55.51;103067.97;5069457;27;45579;-70
2023/01/24 11:50:41;;;;;;;;;47.25;35.50;;;;;6.95;55.37;103029.44;5093522;27;45601;-67
2023/01/24 11:53:20;;;;;;;;;43.00;35.50;;;;;7.27;55.66;103057.56;5078139;27;45401;-66
2023/01/24 11:56:13;;;;;;;;;44.00;30.25;;;;;7.31;55.55;103058.72;5076503;27;45311;-68
2023/01/24 11:58:54;;;;;;;;;47.50;36.50;;;;;7.26;55.00;103041.50;5057528;27;46950;-66
2023/01/24 12:02:01;;;;;;;;;30.25;25.50;;;;;7.29;54.96;103060.34;5077638;27;45433;-69